Time;durP1;ratioP1;P1;durP2;ratioP2;P2;SDS_P1;SDS_P2;PMS_P1;PMS_P2;Temp;Humidity;BMP_temperature;BMP_pressure;BME280_temperature;BME280_humidity;BME280_pressure;Samples;Min_cycle;Max_cycle;Signal;HPM_P1;HPM_P2
2023/04/28 00:01:16;;;;;;;3.28;3.00;;;;;;;;;;5042067;28;20396;-78
2023/04/28 00:03:44;;;;;;;2.92;2.72;;;;;;;;;;5044279;28;20224;-78
2023/04/28 00:06:11;;;;;;;4.88;3.08;;;;;;;;;;5041046;28;20044;-80
2023/04/28 00:08:39;;;;;;;3.50;3.20;;;;;;;;;;5044987;28;20041;-78
2023/04/28 00:11:10;;;;;;;5.32;2.63;;;;;;;;;;5046264;28;20140;-80
2023/04/28 00:13:37;;;;;;;3.60;3.30;;;;;;;;;;5038331;28;20037;-78
2023/04/28 00:16:05;;;;;;;6.47;3.67;;;;;;;;;;5046137;28;20055;-79
2023/04/28 00:18:32;;;;;;;3.72;2.88;;;;;;;;;;5045309;28;20446;-80
2023/04/28 00:21:00;;;;;;;3.63;3.17;;;;;;;;;;5045510;28;20519;-79
2023/04/28 00:23:28;;;;;;;3.40;3.00;;;;;;;;;;5043911;28;20227;-77
2023/04/28 00:25:56;;;;;;;4.43;2.92;;;;;;;;;;5045282;28;20490;-78
2023/04/28 00:28:23;;;;;;;3.80;2.80;;;;;;;;;;5044399;28;20049;-78
2023/04/28 00:30:54;;;;;;;3.95;2.88;;;;;;;;;;5042291;28;20068;-78
2023/04/28 00:33:21;;;;;;;3.50;3.20;;;;;;;;;;5045140;28;20530;-78
2023/04/28 00:35:49;;;;;;;5.03;2.95;;;;;;;;;;5021522;28;20106;-81
2023/04/28 00:38:16;;;;;;;3.58;3.28;;;;;;;;;;5042801;28;20057;-78
2023/04/28 00:40:43;;;;;;;6.13;3.47;;;;;;;;;;5030958;28;20049;-78
2023/04/28 00:43:11;;;;;;;4.50;3.30;;;;;;;;;;5041816;28;20060;-78
2023/04/28 00:45:38;;;;;;;3.63;3.33;;;;;;;;;;5020121;28;20132;-78
2023/04/28 00:48:07;;;;;;;6.05;3.15;;;;;;;;;;5028413;28;20041;-78
2023/04/28 00:50:34;;;;;;;4.68;3.20;;;;;;;;;;5035091;28;20502;-82
2023/04/28 00:53:02;;;;;;;4.78;3.28;;;;;;;;;;5042894;28;20055;-82
2023/04/28 00:55:31;;;;;;;5.43;3.33;;;;;;;;;;5040509;28;20048;-78
2023/04/28 00:57:58;;;;;;;4.00;3.20;;;;;;;;;;5039013;28;20060;-80
2023/04/28 01:00:27;;;;;;;2.92;2.72;;;;;;;;;;5044762;28;20123;-78
2023/04/28 01:02:55;;;;;;;4.10;3.72;;;;;;;;;;5046133;28;20188;-79
2023/04/28 01:05:26;;;;;;;5.63;3.78;;;;;;;;;;5019589;28;20052;-79
2023/04/28 01:07:54;;;;;;;4.60;3.45;;;;;;;;;;5027765;28;20114;-78
2023/04/28 01:10:22;;;;;;;4.10;3.45;;;;;;;;;;5001740;28;20053;-79
2023/04/28 01:12:49;;;;;;;3.72;3.42;;;;;;;;;;5027028;28;20044;-81
2023/04/28 01:15:17;;;;;;;4.07;3.35;;;;;;;;;;5028716;28;20495;-79
2023/04/28 01:17:47;;;;;;;5.10;3.50;;;;;;;;;;5026485;28;20045;-78
2023/04/28 01:20:15;;;;;;;5.10;3.70;;;;;;;;;;5043264;28;20053;-82
2023/04/28 01:22:42;;;;;;;3.70;3.28;;;;;;;;;;5036128;28;20564;-79
2023/04/28 01:25:09;;;;;;;6.30;3.70;;;;;;;;;;5024783;28;20052;-78
2023/04/28 01:27:37;;;;;;;3.83;3.47;;;;;;;;;;5026038;28;20506;-78
2023/04/28 01:30:05;;;;;;;6.68;3.58;;;;;;;;;;5025989;28;20041;-78
2023/04/28 01:32:33;;;;;;;4.53;2.97;;;;;;;;;;5042751;28;20049;-79
2023/04/28 01:35:02;;;;;;;3.65;3.35;;;;;;;;;;5029111;28;20050;-79
2023/04/28 01:37:30;;;;;;;3.70;3.40;;;;;;;;;;5025058;28;20427;-78
2023/04/28 01:39:58;;;;;;;4.22;3.42;;;;;;;;;;5039759;28;20499;-80
2023/04/28 01:42:25;;;;;;;2.53;2.40;;;;;;;;;;5022795;28;20074;-81
2023/04/28 01:44:53;;;;;;;8.35;3.55;;;;;;;;;;5044059;28;20052;-77
2023/04/28 01:47:20;;;;;;;6.20;3.60;;;;;;;;;;5027367;28;20132;-81
2023/04/28 01:49:48;;;;;;;5.18;3.53;;;;;;;;;;5043569;28;20057;-79
2023/04/28 01:52:18;;;;;;;4.63;2.90;;;;;;;;;;5034421;28;20124;-78
2023/04/28 01:54:46;;;;;;;4.78;3.10;;;;;;;;;;5025740;28;20037;-80
2023/04/28 01:57:13;;;;;;;4.97;3.05;;;;;;;;;;5025937;28;20399;-79
2023/04/28 01:59:44;;;;;;;3.33;3.03;;;;;;;;;;5017071;28;20456;-77
2023/04/28 02:02:12;;;;;;;4.35;3.03;;;;;;;;;;5025762;28;20049;-79
2023/04/28 02:04:39;;;;;;;5.88;3.00;;;;;;;;;;5021168;28;20064;-79
2023/04/28 02:07:08;;;;;;;5.57;3.38;;;;;;;;;;5021704;28;20053;-78
2023/04/28 02:09:35;;;;;;;3.35;3.00;;;;;;;;;;5024993;28;20149;-80
2023/04/28 02:12:02;;;;;;;3.42;3.05;;;;;;;;;;5043636;28;20403;-78
2023/04/28 02:14:31;;;;;;;3.20;2.90;;;;;;;;;;5035097;28;20503;-81
2023/04/28 02:16:58;;;;;;;3.53;2.97;;;;;;;;;;5036945;28;20107;-78
2023/04/28 02:19:26;;;;;;;3.55;3.25;;;;;;;;;;5020636;28;20053;-79
2023/04/28 02:21:53;;;;;;;3.78;3.30;;;;;;;;;;5024033;28;20343;-78
2023/04/28 02:24:20;;;;;;;18.05;10.55;;;;;;;;;;5017418;28;20144;-78
2023/04/28 02:26:49;;;;;;;3.72;3.05;;;;;;;;;;5045327;28;20322;-77
2023/04/28 02:29:17;;;;;;;4.70;3.60;;;;;;;;;;5042639;28;20041;-80
2023/04/28 02:31:45;;;;;;;5.25;4.57;;;;;;;;;;5047205;28;20051;-80
2023/04/28 02:34:13;;;;;;;6.40;4.50;;;;;;;;;;5021699;28;20045;-81
2023/04/28 02:36:41;;;;;;;5.60;4.55;;;;;;;;;;5046718;28;20053;-78
2023/04/28 02:39:08;;;;;;;11.35;4.25;;;;;;;;;;5027749;28;20044;-80
2023/04/28 02:41:36;;;;;;;7.47;4.03;;;;;;;;;;5029372;28;20133;-77
2023/04/28 02:44:03;;;;;;;4.82;4.43;;;;;;;;;;5047027;28;20053;-77
2023/04/28 02:46:30;;;;;;;5.10;4.60;;;;;;;;;;5013304;28;20051;-77
2023/04/28 02:48:58;;;;;;;5.10;4.60;;;;;;;;;;5028626;28;20049;-77
2023/04/28 02:51:25;;;;;;;4.70;4.20;;;;;;;;;;5039298;28;20118;-78
2023/04/28 02:53:53;;;;;;;5.43;4.32;;;;;;;;;;5035010;28;20072;-78
2023/04/28 02:56:20;;;;;;;6.15;4.28;;;;;;;;;;5030689;28;20048;-77
2023/04/28 02:58:48;;;;;;;5.35;3.75;;;;;;;;;;5036935;28;20206;-78
2023/04/28 03:01:15;;;;;;;6.70;3.78;;;;;;;;;;5030676;28;20045;-77
2023/04/28 03:03:43;;;;;;;5.18;4.65;;;;;;;;;;5028825;28;20044;-78
2023/04/28 03:06:10;;;;;;;5.18;3.85;;;;;;;;;;5047273;28;20084;-78
2023/04/28 03:08:37;;;;;;;4.88;4.30;;;;;;;;;;5046842;28;20055;-77
2023/04/28 03:11:05;;;;;;;5.05;4.57;;;;;;;;;;5045828;28;20403;-78
2023/04/28 03:13:34;;;;;;;5.72;4.70;;;;;;;;;;5047210;28;20115;-80
2023/04/28 03:16:02;;;;;;;7.60;4.70;;;;;;;;;;5029488;28;20059;-77
2023/04/28 03:18:29;;;;;;;5.20;4.70;;;;;;;;;;5030725;28;20576;-77
2023/04/28 03:20:58;;;;;;;4.00;3.40;;;;;;;;;;5028363;28;20053;-78
2023/04/28 03:23:27;;;;;;;5.45;4.57;;;;;;;;;;5029804;28;20309;-79
2023/04/28 03:25:54;;;;;;;8.63;4.72;;;;;;;;;;5048205;28;20052;-78
2023/04/28 03:28:23;;;;;;;9.23;5.43;;;;;;;;;;5015377;28;20049;-79
2023/04/28 03:30:51;;;;;;;8.80;5.40;;;;;;;;;;5027915;28;20465;-78
2023/04/28 03:33:18;;;;;;;7.30;5.68;;;;;;;;;;5040282;28;20045;-80
2023/04/28 03:35:46;;;;;;;8.88;6.10;;;;;;;;;;5013989;28;20046;-79
2023/04/28 03:38:13;;;;;;;7.88;5.03;;;;;;;;;;5030800;28;20045;-78
2023/04/28 03:40:41;;;;;;;10.30;5.30;;;;;;;;;;5021804;28;20167;-79
2023/04/28 03:43:12;;;;;;;9.35;6.13;;;;;;;;;;5042383;28;20140;-78
2023/04/28 03:45:52;;;;;;;8.52;5.93;;;;;;;;;;5032114;28;20128;-80
2023/04/28 03:48:20;;;;;;;10.13;5.50;;;;;;;;;;5028351;28;20068;-81
2023/04/28 03:50:47;;;;;;;9.38;5.53;;;;;;;;;;5021480;28;20132;-79
2023/04/28 03:53:15;;;;;;;9.68;5.93;;;;;;;;;;5030469;28;20510;-79
2023/04/28 03:55:42;;;;;;;9.43;6.35;;;;;;;;;;5025793;28;20111;-80
2023/04/28 03:58:11;;;;;;;9.82;5.38;;;;;;;;;;5017104;28;20080;-80
2023/04/28 04:00:38;;;;;;;10.57;5.50;;;;;;;;;;5024495;28;20045;-81
2023/04/28 04:03:06;;;;;;;9.63;5.55;;;;;;;;;;5038459;28;20049;-79
2023/04/28 04:05:34;;;;;;;10.25;5.70;;;;;;;;;;5022291;28;20099;-81
2023/04/28 04:08:02;;;;;;;9.73;6.35;;;;;;;;;;5022911;28;20072;-79
2023/04/28 04:10:30;;;;;;;5.88;4.65;;;;;;;;;;5015205;28;20041;-80
2023/04/28 04:12:58;;;;;;;9.00;5.70;;;;;;;;;;5024758;28;20130;-81
2023/04/28 04:15:25;;;;;;;9.00;6.03;;;;;;;;;;5032882;28;20052;-80
2023/04/28 04:17:52;;;;;;;9.80;6.25;;;;;;;;;;5023143;28;20526;-79
2023/04/28 04:20:22;;;;;;;10.27;6.35;;;;;;;;;;5019012;28;20045;-80
2023/04/28 04:22:49;;;;;;;9.20;6.60;;;;;;;;;;5025308;28;20135;-80
2023/04/28 04:25:17;;;;;;;10.77;6.57;;;;;;;;;;5027684;28;20048;-79
2023/04/28 04:27:47;;;;;;;9.57;6.13;;;;;;;;;;5020853;28;20041;-78
2023/04/28 04:30:15;;;;;;;9.23;5.93;;;;;;;;;;5020986;28;20109;-80
2023/04/28 04:32:42;;;;;;;8.45;6.55;;;;;;;;;;5029541;28;20473;-79
2023/04/28 04:35:09;;;;;;;11.65;6.75;;;;;;;;;;5027810;28;20434;-78
2023/04/28 04:37:37;;;;;;;10.98;6.07;;;;;;;;;;5025690;28;20517;-80
2023/04/28 04:40:05;;;;;;;11.50;6.85;;;;;;;;;;5024111;28;20132;-79
2023/04/28 04:42:41;;;;;;;12.00;7.55;;;;;;;;;;5039194;28;20072;-78
2023/04/28 04:45:16;;;;;;;12.77;7.95;;;;;;;;;;5050913;22;20052;-80
2023/04/28 04:47:44;;;;;;;12.15;6.95;;;;;;;;;;5043107;28;20079;-79
2023/04/28 04:50:11;;;;;;;12.50;7.18;;;;;;;;;;5059969;28;20052;-78
2023/04/28 04:52:39;;;;;;;9.98;6.60;;;;;;;;;;5044625;28;20510;-79
2023/04/28 04:55:07;;;;;;;7.97;5.32;;;;;;;;;;5029254;28;20561;-78
2023/04/28 04:57:34;;;;;;;6.65;5.45;;;;;;;;;;5045866;28;20044;-81
2023/04/28 05:00:03;;;;;;;7.85;5.82;;;;;;;;;;5065025;28;20063;-78
2023/04/28 05:02:32;;;;;;;10.30;5.68;;;;;;;;;;5037396;28;20315;-78
2023/04/28 05:05:02;;;;;;;10.52;5.65;;;;;;;;;;5030627;28;20162;-78
2023/04/28 05:07:54;;;;;;;;;;;;;;;;;;5047036;28;20032;-78
2023/04/28 05:10:24;;;;;;;6.35;4.47;;;;;;;;;;5044652;28;19924;-81
2023/04/28 05:13:12;;;;;;;5.18;4.78;;;;;;;;;;5039318;28;20612;-79
2023/04/28 05:15:40;;;;;;;6.30;5.10;;;;;;;;;;5039655;28;20044;-79
2023/04/28 05:18:27;;;;;;;11.30;4.55;;;;;;;;;;5038652;28;20467;-79
2023/04/28 05:21:05;;;;;;;9.90;5.30;;;;;;;;;;5061140;28;20060;-79
2023/04/28 05:23:55;;;;;;;5.05;4.55;;;;;;;;;;5043646;28;20049;-80
2023/04/28 05:26:23;;;;;;;7.85;5.00;;;;;;;;;;5048247;28;20048;-78
2023/04/28 05:28:53;;;;;;;6.05;5.10;;;;;;;;;;5046124;28;20048;-79
2023/04/28 05:31:21;;;;;;;10.77;5.20;;;;;;;;;;5059996;28;20405;-79
2023/04/28 05:33:49;;;;;;;8.68;5.25;;;;;;;;;;5043397;28;20040;-78
2023/04/28 05:36:16;;;;;;;5.75;5.22;;;;;;;;;;5045085;28;20125;-80
2023/04/28 05:38:45;;;;;;;11.05;5.43;;;;;;;;;;5044581;28;20413;-78
2023/04/28 05:41:13;;;;;;;9.55;5.68;;;;;;;;;;5041263;28;20045;-80
2023/04/28 05:43:40;;;;;;;9.68;5.43;;;;;;;;;;5044304;28;20075;-81
2023/04/28 05:46:08;;;;;;;11.90;10.70;;;;;;;;;;5046837;28;20049;-78
2023/04/28 05:48:55;;;;;;;6.78;4.82;;;;;;;;;;5049018;28;20063;-79
2023/04/28 05:51:22;;;;;;;11.18;5.60;;;;;;;;;;5043701;28;22126;-79
2023/04/28 05:53:51;;;;;;;7.00;5.53;;;;;;;;;;5044907;28;20075;-79
2023/04/28 05:56:20;;;;;;;11.20;5.20;;;;;;;;;;5047516;28;20048;-77
2023/04/28 05:58:49;;;;;;;7.35;5.28;;;;;;;;;;5051806;28;20044;-80
2023/04/28 06:01:17;;;;;;;7.65;5.32;;;;;;;;;;5063906;28;20083;-78
2023/04/28 06:03:46;;;;;;;45.20;20.52;;;;;;;;;;5054031;28;20082;-77
2023/04/28 06:06:14;;;;;;;7.47;4.70;;;;;;;;;;5054146;28;20037;-80
2023/04/28 06:08:42;;;;;;;8.02;5.47;;;;;;;;;;5052608;28;20102;-78
2023/04/28 06:11:10;;;;;;;6.70;4.32;;;;;;;;;;5066180;28;20468;-78
2023/04/28 06:13:38;;;;;;;10.38;4.43;;;;;;;;;;5049425;28;20048;-80
2023/04/28 06:16:06;;;;;;;5.63;4.22;;;;;;;;;;5068461;28;20058;-78
2023/04/28 06:18:34;;;;;;;5.50;4.25;;;;;;;;;;5049093;28;20048;-80
2023/04/28 06:21:02;;;;;;;8.73;4.40;;;;;;;;;;5044873;28;20049;-78
2023/04/28 06:23:30;;;;;;;4.68;3.97;;;;;;;;;;5065727;28;20496;-79
2023/04/28 06:25:58;;;;;;;4.15;3.83;;;;;;;;;;5049705;28;20047;-81
2023/04/28 06:28:25;;;;;;;5.57;4.05;;;;;;;;;;5049840;28;20040;-79
2023/04/28 06:30:53;;;;;;;5.93;4.45;;;;;;;;;;5064631;28;20067;-79
2023/04/28 06:33:20;;;;;;;9.93;4.80;;;;;;;;;;5067159;28;20053;-81
2023/04/28 06:35:48;;;;;;;5.28;4.30;;;;;;;;;;5048453;28;20520;-79
2023/04/28 06:38:15;;;;;;;7.28;4.97;;;;;;;;;;5047023;28;20056;-79
2023/04/28 06:40:44;;;;;;;10.23;4.78;;;;;;;;;;5047543;28;20126;-82
2023/04/28 06:43:12;;;;;;;6.55;4.80;;;;;;;;;;5046520;28;20076;-79
2023/04/28 06:46:03;;;;;;;8.32;4.93;;;;;;;;;;5046360;28;20055;-79
2023/04/28 06:48:31;;;;;;;8.32;5.05;;;;;;;;;;5043012;28;20445;-82
2023/04/28 06:50:58;;;;;;;6.90;5.32;;;;;;;;;;5043840;28;20052;-82
2023/04/28 06:53:26;;;;;;;4.70;4.20;;;;;;;;;;5063789;28;20132;-79
2023/04/28 06:55:53;;;;;;;6.63;4.47;;;;;;;;;;5045426;28;20135;-81
2023/04/28 06:58:21;;;;;;;5.35;4.22;;;;;;;;;;5047431;28;20044;-79
2023/04/28 07:00:48;;;;;;;9.38;4.55;;;;;;;;;;5046415;28;20534;-79
2023/04/28 07:03:15;;;;;;;7.78;4.68;;;;;;;;;;5069119;28;20051;-80
2023/04/28 07:05:43;;;;;;;6.78;4.57;;;;;;;;;;5068990;28;20048;-81
2023/04/28 07:08:10;;;;;;;10.15;5.05;;;;;;;;;;5069713;28;20078;-83
2023/04/28 07:10:38;;;;;;;12.88;4.80;;;;;;;;;;5061246;28;20048;-83
2023/04/28 07:13:06;;;;;;;9.40;4.18;;;;;;;;;;5071338;28;20054;-81
2023/04/28 07:15:34;;;;;;;5.53;3.83;;;;;;;;;;5081676;28;20112;-84
2023/04/28 07:18:02;;;;;;;8.10;4.50;;;;;;;;;;5065269;28;20056;-80
2023/04/28 07:20:29;;;;;;;11.68;4.35;;;;;;;;;;5072194;28;20082;-80
2023/04/28 07:22:56;;;;;;;48.70;25.17;;;;;;;;;;5058683;28;20064;-78
2023/04/28 07:25:24;;;;;;;8.65;4.50;;;;;;;;;;5067903;28;20071;-79
2023/04/28 07:27:53;;;;;;;4.32;3.83;;;;;;;;;;5064959;28;20098;-79
2023/04/28 07:30:20;;;;;;;4.65;3.95;;;;;;;;;;5064111;28;20139;-78
2023/04/28 07:32:54;;;;;;;20.10;11.43;;;;;;;;;;5063523;28;20040;-80
2023/04/28 07:35:22;;;;;;;5.70;3.50;;;;;;;;;;5064536;28;20553;-79
2023/04/28 07:37:50;;;;;;;4.68;3.78;;;;;;;;;;5064977;28;20367;-78
2023/04/28 07:40:17;;;;;;;4.40;3.70;;;;;;;;;;5066217;28;20143;-78
2023/04/28 07:42:46;;;;;;;5.43;3.92;;;;;;;;;;5065060;28;20506;-79
2023/04/28 07:45:15;;;;;;;8.80;3.60;;;;;;;;;;5065381;28;20047;-81
2023/04/28 07:47:42;;;;;;;5.95;3.88;;;;;;;;;;5066022;28;20051;-78
2023/04/28 07:50:11;;;;;;;12.45;4.35;;;;;;;;;;5065334;28;20503;-79
2023/04/28 07:52:38;;;;;;;6.13;3.65;;;;;;;;;;5065185;28;20482;-79
2023/04/28 07:55:06;;;;;;;6.30;4.00;;;;;;;;;;5065203;28;20041;-79
2023/04/28 07:57:33;;;;;;;32.50;11.25;;;;;;;;;;5062531;28;20123;-79
2023/04/28 08:00:01;;;;;;;7.28;3.53;;;;;;;;;;5063035;28;20439;-79
2023/04/28 08:02:38;;;;;;;5.95;3.67;;;;;;;;;;5063193;28;20320;-78
2023/04/28 08:05:07;;;;;;;4.43;3.65;;;;;;;;;;5061711;28;20131;-81
2023/04/28 08:07:36;;;;;;;5.28;3.65;;;;;;;;;;5064840;28;20136;-78
2023/04/28 08:10:04;;;;;;;4.43;3.45;;;;;;;;;;5063419;28;20131;-79
2023/04/28 08:12:31;;;;;;;7.35;3.30;;;;;;;;;;5065365;28;20128;-79
2023/04/28 08:14:59;;;;;;;5.85;3.90;;;;;;;;;;5054399;28;20051;-79
2023/04/28 08:17:26;;;;;;;7.07;3.88;;;;;;;;;;5062394;28;20049;-81
2023/04/28 08:19:53;;;;;;;10.15;4.18;;;;;;;;;;5070572;28;20053;-79
2023/04/28 08:22:21;;;;;;;4.80;3.72;;;;;;;;;;5060240;28;20143;-80
2023/04/28 08:24:48;;;;;;;7.18;3.67;;;;;;;;;;5065453;28;20052;-78
2023/04/28 08:27:16;;;;;;;6.22;3.97;;;;;;;;;;5066003;28;20052;-80
2023/04/28 08:29:43;;;;;;;5.10;4.40;;;;;;;;;;5065163;28;20414;-79
2023/04/28 08:32:10;;;;;;;6.70;4.10;;;;;;;;;;5066252;28;20402;-78
2023/04/28 08:34:38;;;;;;;4.47;4.07;;;;;;;;;;5065318;28;20052;-81
2023/04/28 08:37:06;;;;;;;6.55;3.90;;;;;;;;;;5060893;28;20408;-78
2023/04/28 08:39:34;;;;;;;11.18;4.40;;;;;;;;;;5046109;28;20068;-78
2023/04/28 08:42:04;;;;;;;7.07;4.40;;;;;;;;;;5055446;28;20408;-78
2023/04/28 08:44:39;;;;;;;5.50;4.18;;;;;;;;;;5046455;28;20057;-78
2023/04/28 08:47:12;;;;;;;5.13;3.65;;;;;;;;;;5058309;28;20388;-81
2023/04/28 08:49:40;;;;;;;10.05;4.80;;;;;;;;;;5055378;28;20049;-78
2023/04/28 08:52:11;;;;;;;6.00;4.07;;;;;;;;;;5066128;28;20045;-77
2023/04/28 08:54:40;;;;;;;7.00;3.63;;;;;;;;;;5047649;28;20051;-79
2023/04/28 08:57:08;;;;;;;5.70;4.32;;;;;;;;;;5065877;28;20045;-78
2023/04/28 08:59:40;;;;;;;5.65;3.38;;;;;;;;;;5065416;28;20052;-78
2023/04/28 09:02:08;;;;;;;;;;;;;;;;;;5066333;28;20139;-78
2023/04/28 09:04:35;;;;;;;4.68;3.75;;;;;;;;;;5065338;28;19947;-80
2023/04/28 09:07:03;;;;;;;33.97;14.23;;;;;;;;;;5062630;28;20617;-77
2023/04/28 09:09:31;;;;;;;6.68;4.50;;;;;;;;;;5065643;28;20052;-78
2023/04/28 09:12:03;;;;;;;7.05;4.40;;;;;;;;;;5045851;28;20164;-78
2023/04/28 09:14:33;;;;;;;6.05;4.40;;;;;;;;;;5065680;28;20509;-78
2023/04/28 09:17:01;;;;;;;7.30;3.42;;;;;;;;;;5063843;28;20087;-78
2023/04/28 09:19:35;;;;;;;4.20;3.53;;;;;;;;;;5064760;28;20040;-80
2023/04/28 09:22:06;;;;;;;6.03;4.38;;;;;;;;;;5065147;28;20098;-77
2023/04/28 09:24:54;;;;;;;6.65;4.20;;;;;;;;;;5063838;28;20041;-79
2023/04/28 09:27:26;;;;;;;5.80;3.90;;;;;;;;;;5065329;28;20044;-78
2023/04/28 09:29:57;;;;;;;5.40;3.80;;;;;;;;;;5063750;28;20049;-81
2023/04/28 09:32:26;;;;;;;6.05;3.95;;;;;;;;;;5046939;28;20054;-77
2023/04/28 09:34:58;;;;;;;6.68;4.82;;;;;;;;;;5064843;28;20079;-78
2023/04/28 09:37:29;;;;;;;6.10;4.10;;;;;;;;;;5064557;28;20528;-77
2023/04/28 09:39:58;;;;;;;27.13;17.37;;;;;;;;;;5064598;28;20184;-78
2023/04/28 09:42:32;;;;;;;7.72;4.28;;;;;;;;;;5059704;28;20068;-79
2023/04/28 09:45:01;;;;;;;9.57;4.10;;;;;;;;;;5047071;28;20045;-79
2023/04/28 09:47:32;;;;;;;4.32;3.45;;;;;;;;;;5065274;28;20387;-79
2023/04/28 09:50:00;;;;;;;5.85;4.10;;;;;;;;;;5064302;28;20440;-81
2023/04/28 09:52:27;;;;;;;7.28;4.32;;;;;;;;;;5064791;28;20110;-79
2023/04/28 09:54:56;;;;;;;12.75;5.22;;;;;;;;;;5062530;28;20071;-78
2023/04/28 09:57:23;;;;;;;6.38;3.95;;;;;;;;;;5062216;28;20055;-79
2023/04/28 09:59:51;;;;;;;7.68;4.68;;;;;;;;;;5063555;28;20044;-79
2023/04/28 10:02:20;;;;;;;3.85;3.53;;;;;;;;;;5058900;28;20048;-82
2023/04/28 10:05:08;;;;;;;7.55;4.45;;;;;;;;;;5057395;28;20052;-80
2023/04/28 10:07:38;;;;;;;10.75;4.90;;;;;;;;;;5063566;28;20032;-79
2023/04/28 10:10:07;;;;;;;5.90;4.60;;;;;;;;;;5062059;28;20045;-78
2023/04/28 10:12:36;;;;;;;5.55;4.25;;;;;;;;;;5060615;28;20037;-77
2023/04/28 10:15:05;;;;;;;5.65;4.28;;;;;;;;;;5060385;28;20048;-78
2023/04/28 10:17:33;;;;;;;4.88;4.47;;;;;;;;;;5062818;28;20739;-81
2023/04/28 10:20:02;;;;;;;5.10;4.50;;;;;;;;;;5063497;28;20048;-78
2023/04/28 10:22:37;;;;;;;5.20;4.70;;;;;;;;;;5061031;28;20060;-78
2023/04/28 10:25:07;;;;;;;5.75;4.85;;;;;;;;;;5061130;28;20055;-80
2023/04/28 10:27:35;;;;;;;6.15;4.90;;;;;;;;;;5058875;28;20063;-77
2023/04/28 10:30:16;;;;;;;5.03;4.35;;;;;;;;;;5060987;28;20037;-79
2023/04/28 10:32:47;;;;;;;5.07;4.45;;;;;;;;;;5062215;28;20047;-77
2023/04/28 10:35:21;;;;;;;6.53;4.45;;;;;;;;;;5062560;28;20044;-77
2023/04/28 10:38:04;;;;;;;8.30;4.90;;;;;;;;;;5046232;28;20750;-78
2023/04/28 10:41:00;;;;;;;8.35;4.95;;;;;;;;;;5063887;28;20049;-77
2023/04/28 10:43:27;;;;;;;13.13;5.50;;;;;;;;;;5064487;28;20044;-77
2023/04/28 10:46:01;;;;;;;6.45;4.88;;;;;;;;;;5062878;28;20514;-77
2023/04/28 10:48:29;;;;;;;5.72;4.65;;;;;;;;;;5060871;28;20055;-80
2023/04/28 10:51:03;;;;;;;5.43;4.93;;;;;;;;;;5059735;28;20770;-80
2023/04/28 10:53:43;;;;;;;6.53;5.55;;;;;;;;;;5060333;28;20551;-78
2023/04/28 10:56:13;;;;;;;9.67;5.40;;;;;;;;;;5057421;28;20103;-78
2023/04/28 10:58:42;;;;;;;7.45;5.50;;;;;;;;;;5042148;28;20482;-78
2023/04/28 11:01:18;;;;;;;6.40;5.70;;;;;;;;;;5057069;28;20052;-77
2023/04/28 11:04:11;;;;;;;9.20;5.40;;;;;;;;;;5042049;28;20414;-77
2023/04/28 11:06:40;;;;;;;6.68;5.40;;;;;;;;;;5058231;28;20053;-81
2023/04/28 11:09:14;;;;;;;7.95;5.03;;;;;;;;;;5062694;28;20536;-79
2023/04/28 11:11:44;;;;;;;5.75;5.10;;;;;;;;;;5068026;28;20047;-79
2023/04/28 11:14:18;;;;;;;6.85;6.13;;;;;;;;;;5056622;28;20052;-77
2023/04/28 11:16:53;;;;;;;7.25;5.82;;;;;;;;;;5060347;28;20048;-80
2023/04/28 11:19:22;;;;;;;6.93;6.05;;;;;;;;;;5064464;28;20165;-77
2023/04/28 11:21:49;;;;;;;9.18;6.50;;;;;;;;;;5062337;28;20139;-79
2023/04/28 11:24:17;;;;;;;7.13;6.07;;;;;;;;;;5062940;28;20052;-78
2023/04/28 11:26:45;;;;;;;8.15;5.60;;;;;;;;;;5064143;28;20064;-79
2023/04/28 11:29:14;;;;;;;7.55;6.00;;;;;;;;;;5065319;28;20045;-79
2023/04/28 11:31:50;;;;;;;6.65;6.05;;;;;;;;;;5059272;28;20044;-78
2023/04/28 11:34:21;;;;;;;7.68;6.80;;;;;;;;;;5059728;28;20043;-78
2023/04/28 11:36:48;;;;;;;10.32;6.90;;;;;;;;;;5060844;28;20338;-78
2023/04/28 11:39:15;;;;;;;9.98;7.30;;;;;;;;;;5046456;28;20533;-79
2023/04/28 11:41:44;;;;;;;9.18;7.95;;;;;;;;;;5064178;28;20106;-80
2023/04/28 11:44:15;;;;;;;9.65;8.75;;;;;;;;;;5058863;28;20502;-79
2023/04/28 11:47:01;;;;;;;10.20;8.35;;;;;;;;;;5060395;28;20141;-80
2023/04/28 11:49:32;;;;;;;8.15;7.35;;;;;;;;;;5060119;28;20089;-78
2023/04/28 11:52:06;;;;;;;12.57;7.82;;;;;;;;;;5063859;28;20045;-79
2023/04/28 11:54:34;;;;;;;10.50;8.20;;;;;;;;;;5062190;28;20079;-79
2023/04/28 11:57:03;;;;;;;12.57;7.97;;;;;;;;;;5065136;28;20048;-80
2023/04/28 11:59:32;;;;;;;10.30;8.38;;;;;;;;;;5064016;28;20122;-78
2023/04/28 12:02:04;;;;;;;11.05;8.15;;;;;;;;;;5045038;28;20439;-80
2023/04/28 12:04:34;;;;;;;9.43;8.52;;;;;;;;;;5063858;28;20044;-79
2023/04/28 12:07:03;;;;;;;9.60;8.52;;;;;;;;;;5064590;28;20049;-79
2023/04/28 12:09:31;;;;;;;10.40;9.20;;;;;;;;;;5066122;28;20048;-79
2023/04/28 12:12:03;;;;;;;11.73;8.90;;;;;;;;;;5062124;28;20048;-79
2023/04/28 12:14:34;;;;;;;10.07;7.50;;;;;;;;;;5062386;28;20390;-79
2023/04/28 12:17:03;;;;;;;12.60;8.48;;;;;;;;;;5063115;28;20056;-79
2023/04/28 12:19:43;;;;;;;11.48;8.40;;;;;;;;;;5061085;28;20103;-78
2023/04/28 12:22:11;;;;;;;10.20;9.25;;;;;;;;;;5062294;28;20136;-80
2023/04/28 12:24:39;;;;;;;9.40;8.50;;;;;;;;;;5059894;28;20132;-79
2023/04/28 12:27:15;;;;;;;12.48;8.63;;;;;;;;;;5061326;28;20218;-79
2023/04/28 12:29:44;;;;;;;9.65;8.35;;;;;;;;;;5058811;28;20044;-78
2023/04/28 12:32:13;;;;;;;11.35;9.95;;;;;;;;;;5058564;28;20411;-78
2023/04/28 12:34:42;;;;;;;10.27;9.23;;;;;;;;;;5060851;28;20044;-79
2023/04/28 12:37:11;;;;;;;10.88;9.82;;;;;;;;;;5059742;28;20069;-78
2023/04/28 12:39:39;;;;;;;11.68;9.50;;;;;;;;;;5062626;28;20102;-79
2023/04/28 12:42:07;;;;;;;9.93;8.93;;;;;;;;;;5063075;28;20135;-79
2023/04/28 12:44:38;;;;;;;11.52;9.80;;;;;;;;;;5061729;28;20040;-79
2023/04/28 12:47:06;;;;;;;13.40;10.27;;;;;;;;;;5061348;28;20491;-78
2023/04/28 12:49:34;;;;;;;61.22;11.35;;;;;;;;;;5063588;28;20045;-78
2023/04/28 12:52:02;;;;;;;19.35;11.77;;;;;;;;;;5062841;28;20040;-78
2023/04/28 12:54:30;;;;;;;15.13;11.40;;;;;;;;;;5054725;28;20045;-78
2023/04/28 12:56:57;;;;;;;11.20;9.43;;;;;;;;;;5045622;28;20067;-81
2023/04/28 12:59:25;;;;;;;12.90;10.13;;;;;;;;;;5057549;28;20055;-80
2023/04/28 13:01:54;;;;;;;16.45;9.40;;;;;;;;;;5060822;28;20546;-82
2023/04/28 13:04:21;;;;;;;12.45;9.50;;;;;;;;;;5059849;28;20052;-79
2023/04/28 13:06:50;;;;;;;11.27;9.80;;;;;;;;;;5061816;28;20048;-79
2023/04/28 13:09:18;;;;;;;10.15;9.15;;;;;;;;;;5062539;28;20052;-78
2023/04/28 13:11:46;;;;;;;10.70;9.60;;;;;;;;;;5062696;28;20465;-79
2023/04/28 13:14:13;;;;;;;15.60;10.90;;;;;;;;;;5063180;28;20052;-80
2023/04/28 13:16:41;;;;;;;10.48;9.48;;;;;;;;;;5060313;28;20052;-81
2023/04/28 13:19:09;;;;;;;14.55;10.20;;;;;;;;;;5057658;28;20127;-78
2023/04/28 13:21:37;;;;;;;14.52;10.02;;;;;;;;;;5040533;28;20506;-78
2023/04/28 13:24:05;;;;;;;9.48;8.15;;;;;;;;;;5060823;28;20134;-79
2023/04/28 13:26:33;;;;;;;14.57;11.98;;;;;;;;;;5061080;28;20048;-81
2023/04/28 13:29:01;;;;;;;13.30;11.93;;;;;;;;;;5058267;28;20401;-80
2023/04/28 13:31:29;;;;;;;14.18;12.73;;;;;;;;;;5040998;28;20048;-78
2023/04/28 13:33:57;;;;;;;17.60;13.40;;;;;;;;;;5064989;28;20118;-82
2023/04/28 13:36:25;;;;;;;14.07;11.75;;;;;;;;;;5064899;28;20146;-80
2023/04/28 13:38:52;;;;;;;15.27;12.68;;;;;;;;;;5068144;28;20074;-79
2023/04/28 13:41:20;;;;;;;15.80;12.43;;;;;;;;;;5062762;28;20414;-79
2023/04/28 13:43:48;;;;;;;15.35;13.50;;;;;;;;;;5062220;28;20410;-82
2023/04/28 13:46:15;;;;;;;20.58;14.95;;;;;;;;;;5065223;28;20083;-79
2023/04/28 13:48:43;;;;;;;16.13;12.88;;;;;;;;;;5066361;28;20453;-78
2023/04/28 13:51:11;;;;;;;17.80;13.45;;;;;;;;;;5064775;28;20747;-80
2023/04/28 13:53:38;;;;;;;12.07;9.60;;;;;;;;;;5065335;28;20045;-80
2023/04/28 13:56:06;;;;;;;11.07;9.68;;;;;;;;;;5062161;28;20079;-79
2023/04/28 13:58:34;;;;;;;11.15;9.50;;;;;;;;;;5065780;28;20140;-78
2023/04/28 14:01:03;;;;;;;13.57;9.55;;;;;;;;;;5053136;28;20114;-79
2023/04/28 14:03:30;;;;;;;12.13;8.50;;;;;;;;;;5049388;28;20063;-79
2023/04/28 14:05:58;;;;;;;10.70;9.35;;;;;;;;;;5066393;28;20126;-80
2023/04/28 14:08:26;;;;;;;10.80;8.93;;;;;;;;;;5053089;28;20185;-79
2023/04/28 14:10:54;;;;;;;10.75;8.75;;;;;;;;;;5040969;28;20518;-79
2023/04/28 14:13:23;;;;;;;11.80;9.63;;;;;;;;;;5057596;28;20041;-80
2023/04/28 14:15:52;;;;;;;10.07;8.27;;;;;;;;;;5055472;28;20056;-78
2023/04/28 14:18:25;;;;;;;9.60;8.55;;;;;;;;;;5059582;28;20055;-78
2023/04/28 14:20:53;;;;;;;10.25;7.55;;;;;;;;;;5062395;28;20140;-78
2023/04/28 14:23:21;;;;;;;9.63;8.32;;;;;;;;;;5068360;28;20049;-78
2023/04/28 14:25:49;;;;;;;11.45;8.63;;;;;;;;;;5072652;28;20052;-78
2023/04/28 14:28:16;;;;;;;11.77;9.40;;;;;;;;;;5082245;28;20041;-80
2023/04/28 14:30:44;;;;;;;11.23;9.18;;;;;;;;;;5065925;28;20060;-78
2023/04/28 14:33:11;;;;;;;17.80;10.93;;;;;;;;;;5061046;28;20059;-77
2023/04/28 14:35:40;;;;;;;17.77;13.45;;;;;;;;;;5047452;28;20037;-79
2023/04/28 14:38:07;;;;;;;21.55;13.82;;;;;;;;;;5070235;28;20047;-79
2023/04/28 14:40:35;;;;;;;22.13;15.43;;;;;;;;;;5064507;28;20046;-80
2023/04/28 14:43:02;;;;;;;17.58;13.45;;;;;;;;;;5069724;28;20206;-79
2023/04/28 14:45:30;;;;;;;22.15;14.98;;;;;;;;;;5066478;28;20072;-78
2023/04/28 14:47:57;;;;;;;19.45;13.32;;;;;;;;;;5067556;28;20053;-81
2023/04/28 14:50:25;;;;;;;18.48;13.70;;;;;;;;;;5067088;28;20036;-80